createdAt,value
2017-11-09T00:00:55.937Z,1018.19
2017-11-09T00:01:56.096Z,1018.15
2017-11-09T00:02:55.892Z,1018.21
2017-11-09T00:03:55.999Z,1018.19
2017-11-09T00:04:55.830Z,1018.18
2017-11-09T00:05:55.910Z,1018.20
2017-11-09T00:06:55.772Z,1018.21
2017-11-09T00:07:55.931Z,1018.22
2017-11-09T00:08:55.721Z,1018.21
2017-11-09T00:09:55.851Z,1018.20
2017-11-09T00:10:55.660Z,1018.18
2017-11-09T00:11:55.749Z,1018.20
2017-11-09T00:12:55.610Z,1018.22
2017-11-09T00:13:55.764Z,1018.19
2017-11-09T00:14:55.566Z,1018.22
2017-11-09T00:15:55.679Z,1018.25
2017-11-09T00:16:55.496Z,1018.23
2017-11-09T00:17:55.590Z,1018.25
2017-11-09T00:18:55.442Z,1018.27
2017-11-09T00:19:55.605Z,1018.25
2017-11-09T00:20:55.395Z,1018.29
2017-11-09T00:21:55.513Z,1018.26
2017-11-09T00:22:55.336Z,1018.25
2017-11-09T00:23:55.524Z,1018.28
2017-11-09T00:24:55.276Z,1018.29
2017-11-09T00:25:55.434Z,1018.27
2017-11-09T00:26:55.223Z,1018.29
2017-11-09T00:27:56.375Z,1018.29
2017-11-09T00:28:55.164Z,1018.28
2017-11-09T00:29:55.260Z,1018.33
2017-11-09T00:30:55.116Z,1018.34
2017-11-09T00:31:55.272Z,1018.36
2017-11-09T00:32:55.056Z,1018.39
2017-11-09T00:33:55.184Z,1018.42
2017-11-09T00:34:55.001Z,1018.42
2017-11-09T00:35:55.094Z,1018.46
2017-11-09T00:36:54.950Z,1018.46
2017-11-09T00:37:55.006Z,1018.46
2017-11-09T00:38:54.889Z,1018.48
2017-11-09T00:39:54.922Z,1018.44
2017-11-09T00:40:54.835Z,1018.44
2017-11-09T00:41:54.929Z,1018.45
2017-11-09T00:42:54.781Z,1018.45
2017-11-09T00:43:54.845Z,1018.44
2017-11-09T00:44:54.728Z,1018.43
2017-11-09T00:45:54.758Z,1018.49
2017-11-09T00:46:54.671Z,1018.45
2017-11-09T00:47:54.766Z,1018.45
2017-11-09T00:48:54.616Z,1018.43
2017-11-09T00:49:54.680Z,1018.50
2017-11-09T00:50:54.562Z,1018.48
2017-11-09T00:51:54.592Z,1018.53
2017-11-09T00:52:54.505Z,1018.50
2017-11-09T00:53:54.607Z,1018.49
2017-11-09T00:54:54.449Z,1018.51
2017-11-09T00:55:54.519Z,1018.53
2017-11-09T00:56:54.395Z,1018.53
2017-11-09T00:57:54.429Z,1018.51
2017-11-09T00:58:54.342Z,1018.50
2017-11-09T00:59:54.441Z,1018.53
2017-11-09T01:00:54.283Z,1018.54
2017-11-09T01:01:54.357Z,1018.56
2017-11-09T01:02:54.231Z,1018.48
2017-11-09T01:03:54.262Z,1018.56
2017-11-09T01:04:54.181Z,1018.54
2017-11-09T01:05:54.283Z,1018.55
2017-11-09T01:06:54.120Z,1018.59
2017-11-09T01:07:54.190Z,1018.60
2017-11-09T01:08:54.068Z,1018.61
2017-11-09T01:09:54.101Z,1018.60
2017-11-09T01:10:54.004Z,1018.58
2017-11-09T01:11:54.113Z,1018.67
2017-11-09T01:12:53.951Z,1018.62
2017-11-09T01:13:54.027Z,1018.62
2017-11-09T01:14:53.899Z,1018.62
2017-11-09T01:15:53.939Z,1018.63
2017-11-09T01:16:53.842Z,1018.64
2017-11-09T01:17:53.952Z,1018.61
2017-11-09T01:18:53.786Z,1018.60
2017-11-09T01:19:53.863Z,1018.61
2017-11-09T01:20:53.733Z,1018.57
2017-11-09T01:21:53.782Z,1018.55
2017-11-09T01:22:53.678Z,1018.52
2017-11-09T01:23:53.686Z,1018.51
2017-11-09T01:24:53.625Z,1018.49
2017-11-09T01:25:53.703Z,1018.51
2017-11-09T01:26:53.569Z,1018.48
2017-11-09T01:27:53.613Z,1018.52
2017-11-09T01:28:53.512Z,1018.51
2017-11-09T01:29:53.628Z,1018.49
2017-11-09T01:30:53.458Z,1018.54
2017-11-09T01:31:53.538Z,1018.56
2017-11-09T01:32:53.406Z,1018.60
2017-11-09T01:33:53.447Z,1018.62
2017-11-09T01:34:53.356Z,1018.61
2017-11-09T01:35:53.463Z,1018.61
2017-11-09T01:36:53.291Z,1018.59
2017-11-09T01:37:53.376Z,1018.59
2017-11-09T01:38:53.242Z,1018.57
2017-11-09T01:39:53.285Z,1018.59
2017-11-09T01:40:53.185Z,1018.61
2017-11-09T01:41:53.298Z,1018.65
2017-11-09T01:42:53.125Z,1018.63
2017-11-09T01:43:53.212Z,1018.59
2017-11-09T01:44:53.077Z,1018.64
2017-11-09T01:45:53.122Z,1018.66
2017-11-09T01:46:53.015Z,1018.67
2017-11-09T01:47:53.135Z,1018.64
2017-11-09T01:48:52.965Z,1018.66
2017-11-09T01:49:53.046Z,1018.64
2017-11-09T01:50:52.913Z,1018.66
2017-11-09T01:51:52.959Z,1018.66
2017-11-09T01:52:52.850Z,1018.68
2017-11-09T01:53:52.983Z,1018.67
2017-11-09T01:54:52.799Z,1018.72
2017-11-09T01:55:52.886Z,1018.70
2017-11-09T01:56:52.745Z,1018.71
2017-11-09T01:57:52.796Z,1018.76
2017-11-09T01:58:52.686Z,1018.70
2017-11-09T01:59:52.811Z,1018.76
2017-11-09T02:00:52.633Z,1018.73
2017-11-09T02:01:52.722Z,1018.74
2017-11-09T02:02:52.578Z,1018.75
2017-11-09T02:03:52.633Z,1018.77
2017-11-09T02:04:52.520Z,1018.76
2017-11-09T02:05:52.655Z,1018.77
2017-11-09T02:06:52.470Z,1018.77
2017-11-09T02:07:52.559Z,1018.75
2017-11-09T02:08:52.409Z,1018.75
2017-11-09T02:09:52.469Z,1018.75
2017-11-09T02:10:52.362Z,1018.79
2017-11-09T02:11:52.485Z,1018.79
2017-11-09T02:12:52.305Z,1018.79
2017-11-09T02:13:52.396Z,1018.80
2017-11-09T02:14:52.242Z,1018.84
2017-11-09T02:15:52.307Z,1018.83
2017-11-09T02:16:52.190Z,1018.82
2017-11-09T02:17:52.321Z,1018.84
2017-11-09T02:18:59.099Z,1018.86
2017-11-09T02:19:52.232Z,1018.86
2017-11-09T02:20:52.075Z,1018.86
2017-11-09T02:21:52.250Z,1018.83
2017-11-09T02:22:52.026Z,1018.82
2017-11-09T02:23:52.157Z,1018.87
2017-11-09T02:24:51.967Z,1018.84
2017-11-09T02:25:52.070Z,1018.86
2017-11-09T02:26:51.912Z,1018.85
2017-11-09T02:27:52.081Z,1018.89
2017-11-09T02:28:51.859Z,1018.87
2017-11-09T02:29:52.000Z,1018.91
2017-11-09T02:30:51.798Z,1018.92
2017-11-09T02:31:51.905Z,1018.89
2017-11-09T02:32:51.771Z,1018.92
2017-11-09T02:33:51.920Z,1018.92
2017-11-09T02:34:51.692Z,1018.94
2017-11-09T02:35:51.835Z,1018.94
2017-11-09T02:36:51.635Z,1018.98
2017-11-09T02:37:51.742Z,1018.98
2017-11-09T02:38:51.585Z,1018.94
2017-11-09T02:39:51.756Z,1018.98
2017-11-09T02:40:51.535Z,1018.97
2017-11-09T02:41:51.671Z,1018.99
2017-11-09T02:42:51.478Z,1019.02
2017-11-09T02:43:51.580Z,1019.01
2017-11-09T02:44:51.416Z,1019.04
2017-11-09T02:45:51.592Z,1018.97
2017-11-09T02:46:51.374Z,1018.99
2017-11-09T02:47:51.506Z,1019.00
2017-11-09T02:48:51.308Z,1018.99
2017-11-09T02:49:51.417Z,1018.99
2017-11-09T02:50:51.254Z,1018.99
2017-11-09T02:51:51.430Z,1019.00
2017-11-09T02:52:51.193Z,1019.03
2017-11-09T02:53:51.340Z,1019.02
2017-11-09T02:54:51.146Z,1018.98
2017-11-09T02:55:51.254Z,1019.03
2017-11-09T02:56:51.085Z,1019.05
2017-11-09T02:57:51.265Z,1019.01
2017-11-09T02:58:51.041Z,1019.02
2017-11-09T02:59:51.177Z,1018.98
2017-11-09T03:00:50.977Z,1018.97
2017-11-09T03:01:50.990Z,1018.96
2017-11-09T03:02:50.921Z,1018.99
2017-11-09T03:03:51.002Z,1019.00
2017-11-09T03:04:50.862Z,1018.97
2017-11-09T03:05:50.912Z,1018.99
2017-11-09T03:06:50.808Z,1019.06
2017-11-09T03:07:50.825Z,1019.00
2017-11-09T03:08:50.749Z,1018.98
2017-11-09T03:09:50.844Z,1019.01
2017-11-09T03:10:50.700Z,1018.97
2017-11-09T03:11:50.753Z,1019.00
2017-11-09T03:12:50.655Z,1018.99
2017-11-09T03:13:50.659Z,1018.96
2017-11-09T03:14:50.586Z,1018.96
2017-11-09T03:15:50.672Z,1018.95
2017-11-09T03:16:50.531Z,1019.03
2017-11-09T03:17:50.586Z,1019.01
2017-11-09T03:18:50.477Z,1019.01
2017-11-09T03:19:50.496Z,1019.01
2017-11-09T03:20:50.435Z,1019.07
2017-11-09T03:21:50.514Z,1019.06
2017-11-09T03:22:50.368Z,1019.07
2017-11-09T03:23:50.421Z,1019.05
2017-11-09T03:24:50.312Z,1019.09
2017-11-09T03:25:50.333Z,1019.04
2017-11-09T03:26:50.253Z,1019.07
2017-11-09T03:27:50.351Z,1019.12
2017-11-09T03:28:50.200Z,1019.08
2017-11-09T03:29:50.261Z,1019.06
2017-11-09T03:30:50.148Z,1019.11
2017-11-09T03:31:50.179Z,1019.07
2017-11-09T03:32:50.089Z,1019.06
2017-11-09T03:33:50.184Z,1019.09
2017-11-09T03:34:50.037Z,1019.11
2017-11-09T03:35:50.095Z,1019.11
2017-11-09T03:36:49.974Z,1019.14
2017-11-09T03:37:50.007Z,1019.14
2017-11-09T03:38:49.921Z,1019.14
2017-11-09T03:39:50.029Z,1019.12
2017-11-09T03:40:49.870Z,1019.11
2017-11-09T03:41:49.933Z,1019.15
2017-11-09T03:42:49.816Z,1019.15
2017-11-09T03:43:49.844Z,1019.15
2017-11-09T03:44:49.757Z,1019.19
2017-11-09T03:45:49.857Z,1019.16
2017-11-09T03:46:49.706Z,1019.17
2017-11-09T03:47:49.776Z,1019.16
2017-11-09T03:48:49.647Z,1019.18
2017-11-09T03:49:49.681Z,1019.14
2017-11-09T03:50:49.592Z,1019.16
2017-11-09T03:51:49.694Z,1019.17
2017-11-09T03:52:49.535Z,1019.17
2017-11-09T03:53:49.606Z,1019.16
2017-11-09T03:54:49.479Z,1019.21
2017-11-09T03:55:49.517Z,1019.14
2017-11-09T03:56:49.428Z,1019.16
2017-11-09T03:57:49.527Z,1019.14
2017-11-09T03:58:49.374Z,1019.12
2017-11-09T03:59:49.442Z,1019.07
2017-11-09T04:00:49.312Z,1019.08
2017-11-09T04:01:49.359Z,1019.04
2017-11-09T04:02:49.264Z,1019.04
2017-11-09T04:03:49.366Z,1019.07
2017-11-09T04:04:49.202Z,1019.06
2017-11-09T04:05:49.284Z,1019.00
2017-11-09T04:06:49.144Z,1019.03
2017-11-09T04:07:49.195Z,1018.99
2017-11-09T04:08:49.100Z,1019.00
2017-11-09T04:09:49.208Z,1019.01
2017-11-09T04:10:49.036Z,1019.02
2017-11-09T04:11:49.121Z,1019.03
2017-11-09T04:12:48.987Z,1019.02
2017-11-09T04:13:49.035Z,1019.00
2017-11-09T04:14:48.941Z,1018.97
2017-11-09T04:15:49.049Z,1019.02
2017-11-09T04:16:48.874Z,1018.95
2017-11-09T04:17:48.948Z,1018.95
2017-11-09T04:18:48.818Z,1018.92
2017-11-09T04:19:48.870Z,1018.85
2017-11-09T04:20:48.762Z,1018.86
2017-11-09T04:21:48.885Z,1018.86
2017-11-09T04:22:48.706Z,1018.83
2017-11-09T04:23:48.791Z,1018.81
2017-11-09T04:24:48.650Z,1018.81
2017-11-09T04:25:48.702Z,1018.80
2017-11-09T04:26:48.592Z,1018.74
2017-11-09T04:27:48.716Z,1018.77
2017-11-09T04:28:48.541Z,1018.79
2017-11-09T04:29:48.632Z,1018.77
2017-11-09T04:30:48.490Z,1018.79
2017-11-09T04:31:48.646Z,1018.78
2017-11-09T04:32:48.428Z,1018.78
2017-11-09T04:33:48.557Z,1018.79
2017-11-09T04:34:48.378Z,1018.76
2017-11-09T04:35:48.470Z,1018.79
2017-11-09T04:36:48.315Z,1018.76
2017-11-09T04:37:48.380Z,1018.73
2017-11-09T04:38:48.263Z,1018.75
2017-11-09T04:39:48.392Z,1018.72
2017-11-09T04:40:48.209Z,1018.74
2017-11-09T04:41:48.308Z,1018.74
2017-11-09T04:42:48.154Z,1018.71
2017-11-09T04:43:48.316Z,1018.67
2017-11-09T04:44:48.095Z,1018.72
2017-11-09T04:45:48.229Z,1018.72
2017-11-09T04:46:48.042Z,1018.67
2017-11-09T04:47:48.140Z,1018.72
2017-11-09T04:48:47.987Z,1018.67
2017-11-09T04:49:48.158Z,1018.67
2017-11-09T04:50:47.929Z,1018.71
2017-11-09T04:51:48.064Z,1018.71
2017-11-09T04:52:47.872Z,1018.71
2017-11-09T04:53:47.972Z,1018.74
2017-11-09T04:54:47.817Z,1018.76
2017-11-09T04:55:47.991Z,1018.75
2017-11-09T04:56:47.762Z,1018.73
2017-11-09T04:57:47.903Z,1018.75
2017-11-09T04:58:47.709Z,1018.77
2017-11-09T04:59:47.818Z,1018.74
2017-11-09T05:00:47.649Z,1018.76
2017-11-09T05:01:47.827Z,1018.74
2017-11-09T05:02:47.597Z,1018.78
2017-11-09T05:03:47.738Z,1018.77
2017-11-09T05:04:47.546Z,1018.76
2017-11-09T05:05:47.647Z,1018.73
2017-11-09T05:06:47.484Z,1018.80
2017-11-09T05:07:47.663Z,1018.76
2017-11-09T05:08:47.438Z,1018.84
2017-11-09T05:09:47.569Z,1018.87
2017-11-09T05:10:47.371Z,1018.84
2017-11-09T05:11:47.482Z,1018.87
2017-11-09T05:12:47.333Z,1018.85
2017-11-09T05:13:47.494Z,1018.88
2017-11-09T05:14:47.262Z,1018.88
2017-11-09T05:15:47.409Z,1018.94
2017-11-09T05:16:47.207Z,1018.94
2017-11-09T05:17:48.345Z,1018.94
2017-11-09T05:18:47.154Z,1018.94
2017-11-09T05:19:47.332Z,1018.98
2017-11-09T05:20:47.094Z,1018.94
2017-11-09T05:21:47.243Z,1018.93
2017-11-09T05:22:47.043Z,1018.99
2017-11-09T05:23:47.160Z,1018.98
2017-11-09T05:24:46.981Z,1018.98
2017-11-09T05:25:47.168Z,1018.99
2017-11-09T05:26:46.932Z,1018.99
2017-11-09T05:27:47.081Z,1019.05
2017-11-09T05:28:46.880Z,1019.05
2017-11-09T05:29:46.888Z,1019.01
2017-11-09T05:30:46.815Z,1019.01
2017-11-09T05:31:46.904Z,1019.05
2017-11-09T05:32:46.765Z,1019.06
2017-11-09T05:33:46.814Z,1019.04
2017-11-09T05:34:46.701Z,1019.02
2017-11-09T05:35:46.724Z,1019.03
2017-11-09T05:36:46.647Z,1019.03
2017-11-09T05:37:46.740Z,1019.00
2017-11-09T05:38:46.592Z,1019.06
2017-11-09T05:39:46.654Z,1019.06
2017-11-09T05:40:46.538Z,1019.06
2017-11-09T05:41:46.565Z,1019.06
2017-11-09T05:42:46.501Z,1019.11
2017-11-09T05:43:46.576Z,1019.09
2017-11-09T05:44:46.441Z,1019.10
2017-11-09T05:45:46.488Z,1019.10
2017-11-09T05:46:46.372Z,1019.13
2017-11-09T05:47:46.402Z,1019.10
2017-11-09T05:48:46.316Z,1019.17
2017-11-09T05:49:46.416Z,1019.15
2017-11-09T05:50:46.261Z,1019.18
2017-11-09T05:51:46.329Z,1019.23
2017-11-09T05:52:46.208Z,1019.25
2017-11-09T05:53:46.240Z,1019.22
2017-11-09T05:54:46.149Z,1019.29
2017-11-09T05:55:46.251Z,1019.28
2017-11-09T05:56:46.089Z,1019.28
2017-11-09T05:57:46.164Z,1019.22
2017-11-09T05:58:46.037Z,1019.27
2017-11-09T05:59:46.074Z,1019.28
2017-11-09T06:00:45.973Z,1019.25
2017-11-09T06:01:46.090Z,1019.28
2017-11-09T06:02:45.921Z,1019.24
2017-11-09T06:03:45.999Z,1019.30
2017-11-09T06:04:45.873Z,1019.29
2017-11-09T06:05:45.912Z,1019.30
2017-11-09T06:06:45.809Z,1019.31
2017-11-09T06:07:45.924Z,1019.37
2017-11-09T06:08:45.754Z,1019.34
2017-11-09T06:09:45.844Z,1019.34
2017-11-09T06:10:45.697Z,1019.33
2017-11-09T06:11:45.748Z,1019.35
2017-11-09T06:12:45.642Z,1019.34
2017-11-09T06:13:45.769Z,1019.36
2017-11-09T06:14:45.578Z,1019.36
2017-11-09T06:15:45.672Z,1019.35
2017-11-09T06:16:45.531Z,1019.32
2017-11-09T06:17:45.585Z,1019.36
2017-11-09T06:18:45.475Z,1019.32
2017-11-09T06:19:45.596Z,1019.35
2017-11-09T06:20:45.413Z,1019.33
2017-11-09T06:21:45.507Z,1019.33
2017-11-09T06:22:45.359Z,1019.39
2017-11-09T06:23:45.423Z,1019.36
2017-11-09T06:24:45.308Z,1019.35
2017-11-09T06:25:45.336Z,1019.38
2017-11-09T06:26:45.256Z,1019.38
2017-11-09T06:27:45.351Z,1019.39
2017-11-09T06:28:45.196Z,1019.37
2017-11-09T06:29:45.259Z,1019.38
2017-11-09T06:30:45.134Z,1019.36
2017-11-09T06:31:45.276Z,1019.39
2017-11-09T06:32:45.075Z,1019.40
2017-11-09T06:33:45.185Z,1019.45
2017-11-09T06:34:45.024Z,1019.43
2017-11-09T06:35:45.096Z,1019.45
2017-11-09T06:36:44.967Z,1019.46
2017-11-09T06:37:45.008Z,1019.46
2017-11-09T06:38:44.908Z,1019.50
2017-11-09T06:39:45.022Z,1019.48
2017-11-09T06:40:44.852Z,1019.50
2017-11-09T06:41:44.933Z,1019.52
2017-11-09T06:42:44.813Z,1019.55
2017-11-09T06:43:44.845Z,1019.53
2017-11-09T06:44:44.757Z,1019.49
2017-11-09T06:45:44.857Z,1019.49
2017-11-09T06:46:44.684Z,1019.50
2017-11-09T06:47:44.772Z,1019.51
2017-11-09T06:48:44.624Z,1019.48
2017-11-09T06:49:44.683Z,1019.53
2017-11-09T06:50:44.570Z,1019.52
2017-11-09T06:51:44.693Z,1019.54
2017-11-09T06:52:44.521Z,1019.54
2017-11-09T06:53:44.605Z,1019.52
2017-11-09T06:54:44.459Z,1019.56
2017-11-09T06:55:44.518Z,1019.58
2017-11-09T06:56:44.402Z,1019.62
2017-11-09T06:57:44.527Z,1019.60
2017-11-09T06:58:44.344Z,1019.60
2017-11-09T06:59:44.443Z,1019.58
2017-11-09T07:00:44.286Z,1019.58
2017-11-09T07:01:44.354Z,1019.59
2017-11-09T07:02:44.234Z,1019.59
2017-11-09T07:03:44.369Z,1019.59
2017-11-09T07:04:44.171Z,1019.64
2017-11-09T07:05:44.280Z,1019.65
2017-11-09T07:06:44.118Z,1019.66
2017-11-09T07:07:44.188Z,1019.61
2017-11-09T07:08:44.064Z,1019.67
2017-11-09T07:09:44.202Z,1019.67
2017-11-09T07:10:44.007Z,1019.69
2017-11-09T07:11:44.113Z,1019.68
2017-11-09T07:12:43.947Z,1019.72
2017-11-09T07:13:44.028Z,1019.69
2017-11-09T07:14:43.897Z,1019.70
2017-11-09T07:15:44.039Z,1019.72
2017-11-09T07:16:43.835Z,1019.80
2017-11-09T07:17:43.952Z,1019.74
2017-11-09T07:18:43.783Z,1019.76
2017-11-09T07:19:43.864Z,1019.78
2017-11-09T07:20:43.726Z,1019.80
2017-11-09T07:21:43.876Z,1019.80
2017-11-09T07:22:43.666Z,1019.74
2017-11-09T07:23:43.788Z,1019.76
2017-11-09T07:24:43.611Z,1019.73
2017-11-09T07:25:43.722Z,1019.77
2017-11-09T07:26:43.556Z,1019.76
2017-11-09T07:27:43.715Z,1019.81
2017-11-09T07:28:43.500Z,1019.82
2017-11-09T07:29:43.628Z,1019.79
2017-11-09T07:30:43.445Z,1019.80
2017-11-09T07:31:43.545Z,1019.76
2017-11-09T07:32:43.385Z,1019.80
2017-11-09T07:33:43.550Z,1019.82
2017-11-09T07:34:43.333Z,1019.83
2017-11-09T07:35:43.462Z,1019.83
2017-11-09T07:36:43.271Z,1019.84
2017-11-09T07:37:43.375Z,1019.82
2017-11-09T07:38:43.230Z,1019.81
2017-11-09T07:39:43.393Z,1019.87
2017-11-09T07:40:43.158Z,1019.88
2017-11-09T07:41:43.296Z,1019.87
2017-11-09T07:42:43.098Z,1019.92
2017-11-09T07:43:43.211Z,1019.92
2017-11-09T07:44:43.046Z,1019.93
2017-11-09T07:45:43.228Z,1019.97
2017-11-09T07:46:42.993Z,1020.01
2017-11-09T07:47:43.136Z,1020.01
2017-11-09T07:48:42.935Z,1020.03
2017-11-09T07:49:43.047Z,1020.02
2017-11-09T07:50:42.882Z,1020.09
2017-11-09T07:51:43.062Z,1020.04
2017-11-09T07:52:42.820Z,1020.04
2017-11-09T07:53:42.971Z,1020.04
2017-11-09T07:54:42.780Z,1020.06
2017-11-09T07:55:42.781Z,1020.02
2017-11-09T07:56:42.708Z,1020.03
2017-11-09T07:57:42.791Z,1020.02
2017-11-09T07:58:42.653Z,1020.02
2017-11-09T07:59:42.713Z,1020.05
2017-11-09T08:00:42.596Z,1020.05
2017-11-09T08:01:42.615Z,1020.04
2017-11-09T08:02:42.540Z,1020.03
2017-11-09T08:03:42.630Z,1020.02
2017-11-09T08:04:42.485Z,1020.09
2017-11-09T08:05:42.542Z,1020.09
2017-11-09T08:06:42.424Z,1020.11
2017-11-09T08:07:42.457Z,1020.14
2017-11-09T08:08:42.378Z,1020.19
2017-11-09T08:09:42.468Z,1020.19
2017-11-09T08:10:42.314Z,1020.17
2017-11-09T08:11:42.382Z,1020.16
2017-11-09T08:12:42.263Z,1020.21
2017-11-09T08:13:42.293Z,1020.18
2017-11-09T08:14:42.202Z,1020.21
2017-11-09T08:15:42.310Z,1020.23
2017-11-09T08:16:42.145Z,1020.22
2017-11-09T08:17:42.218Z,1020.21
2017-11-09T08:18:42.095Z,1020.22
2017-11-09T08:19:42.127Z,1020.19
2017-11-09T08:20:42.032Z,1020.22
2017-11-09T08:21:42.144Z,1020.20
2017-11-09T08:22:41.979Z,1020.21
2017-11-09T08:23:42.062Z,1020.23
2017-11-09T08:24:41.917Z,1020.20
2017-11-09T08:25:41.967Z,1020.22
2017-11-09T08:26:41.863Z,1020.20
2017-11-09T08:27:41.879Z,1020.21
2017-11-09T08:28:41.810Z,1020.22
2017-11-09T08:29:41.892Z,1020.19
2017-11-09T08:30:41.753Z,1020.21
2017-11-09T08:31:41.801Z,1020.23
2017-11-09T08:32:41.696Z,1020.22
2017-11-09T08:33:41.715Z,1020.24
2017-11-09T08:34:41.641Z,1020.24
2017-11-09T08:35:41.730Z,1020.27
2017-11-09T08:36:41.584Z,1020.24
2017-11-09T08:37:41.638Z,1020.31
2017-11-09T08:38:41.523Z,1020.26
2017-11-09T08:39:41.500Z,1020.24
2017-11-09T08:40:41.517Z,1020.23
2017-11-09T08:41:41.448Z,1020.26
2017-11-09T08:42:41.426Z,1020.27
2017-11-09T08:43:41.391Z,1020.28
2017-11-09T08:44:41.441Z,1020.30
2017-11-09T08:45:41.344Z,1020.32
2017-11-09T08:46:41.352Z,1020.29
2017-11-09T08:47:41.276Z,1020.24
2017-11-09T08:48:41.261Z,1020.27
2017-11-09T08:49:41.224Z,1020.24
2017-11-09T08:50:41.277Z,1020.28
2017-11-09T08:51:41.164Z,1020.29
2017-11-09T08:52:41.185Z,1020.25
2017-11-09T08:53:41.105Z,1020.29
2017-11-09T08:54:41.096Z,1020.29
2017-11-09T08:55:41.065Z,1020.27
2017-11-09T08:56:41.125Z,1020.31
2017-11-09T08:57:40.999Z,1020.24
2017-11-09T08:58:41.030Z,1020.26
2017-11-09T08:59:40.950Z,1020.26
2017-11-09T09:00:40.931Z,1020.24
2017-11-09T09:01:40.898Z,1020.27
2017-11-09T09:02:40.959Z,1020.28
2017-11-09T09:03:40.830Z,1020.30
2017-11-09T09:04:40.858Z,1020.21
2017-11-09T09:05:40.777Z,1020.27
2017-11-09T09:06:40.759Z,1020.28
2017-11-09T09:07:40.724Z,1020.33
2017-11-09T09:08:40.774Z,1020.32
2017-11-09T09:09:40.663Z,1020.32
2017-11-09T09:10:40.680Z,1020.32
2017-11-09T09:11:40.614Z,1020.30
2017-11-09T09:12:40.590Z,1020.31
2017-11-09T09:13:40.551Z,1020.35
2017-11-09T09:14:40.607Z,1020.32
2017-11-09T09:15:40.500Z,1020.30
2017-11-09T09:16:40.583Z,1020.28
2017-11-09T09:17:40.439Z,1020.26
2017-11-09T09:18:40.411Z,1020.28
2017-11-09T09:19:40.387Z,1020.25
2017-11-09T09:20:40.512Z,1020.26
2017-11-09T09:21:40.328Z,1020.27
2017-11-09T09:22:40.419Z,1020.27
2017-11-09T09:23:40.277Z,1020.26
2017-11-09T09:24:40.431Z,1020.24
2017-11-09T09:25:40.220Z,1020.22
2017-11-09T09:26:40.343Z,1020.19
2017-11-09T09:27:40.165Z,1020.23
2017-11-09T09:28:40.254Z,1020.23
2017-11-09T09:29:40.116Z,1020.27
2017-11-09T09:30:40.268Z,1020.23
2017-11-09T09:31:40.050Z,1020.23
2017-11-09T09:32:40.187Z,1020.24
2017-11-09T09:33:39.998Z,1020.23
2017-11-09T09:34:40.092Z,1020.20
2017-11-09T09:35:39.939Z,1020.17
2017-11-09T09:36:40.108Z,1020.13
2017-11-09T09:37:39.886Z,1020.16
2017-11-09T09:38:40.019Z,1020.16
2017-11-09T09:39:39.836Z,1020.14
2017-11-09T09:40:39.926Z,1020.14
2017-11-09T09:41:39.770Z,1020.13
2017-11-09T09:42:39.945Z,1020.12
2017-11-09T09:43:39.720Z,1020.09
2017-11-09T09:44:39.855Z,1020.14
2017-11-09T09:45:39.662Z,1020.12
2017-11-09T09:46:39.765Z,1020.15
2017-11-09T09:47:39.607Z,1020.18
2017-11-09T09:48:39.778Z,1020.15
2017-11-09T09:49:39.554Z,1020.15
2017-11-09T09:50:39.687Z,1020.17
2017-11-09T09:51:39.500Z,1020.16
2017-11-09T09:52:39.512Z,1020.15
2017-11-09T09:53:39.452Z,1020.20
2017-11-09T09:54:39.614Z,1020.22
2017-11-09T09:55:39.390Z,1020.21
2017-11-09T09:56:39.526Z,1020.22
2017-11-09T09:57:39.332Z,1020.24
2017-11-09T09:58:39.435Z,1020.22
2017-11-09T09:59:39.278Z,1020.28
2017-11-09T10:00:39.347Z,1020.29
2017-11-09T10:01:39.222Z,1020.31
2017-11-09T10:02:39.359Z,1020.31
2017-11-09T10:03:39.169Z,1020.34
2017-11-09T10:04:39.274Z,1020.31
2017-11-09T10:05:39.112Z,1020.37
2017-11-09T10:06:39.288Z,1020.32
2017-11-09T10:07:39.080Z,1020.28
2017-11-09T10:08:39.205Z,1020.26
2017-11-09T10:09:39.007Z,1020.19
2017-11-09T10:10:39.116Z,1020.22
2017-11-09T10:11:38.949Z,1020.22
2017-11-09T10:12:39.139Z,1020.21
2017-11-09T10:13:38.900Z,1020.24
2017-11-09T10:14:39.034Z,1020.22
2017-11-09T10:15:38.850Z,1020.23
2017-11-09T10:16:38.947Z,1020.25
2017-11-09T10:17:38.788Z,1020.26
2017-11-09T10:18:38.960Z,1020.26
2017-11-09T10:19:38.737Z,1020.21
2017-11-09T10:20:38.876Z,1020.27
2017-11-09T10:21:38.692Z,1020.27
2017-11-09T10:22:38.681Z,1020.31
2017-11-09T10:23:38.649Z,1020.29
2017-11-09T10:24:38.694Z,1020.29
2017-11-09T10:25:38.570Z,1020.32
2017-11-09T10:26:38.606Z,1020.33
2017-11-09T10:27:38.521Z,1020.31
2017-11-09T10:28:38.518Z,1020.32
2017-11-09T10:29:38.470Z,1020.33
2017-11-09T10:30:38.528Z,1020.35
2017-11-09T10:31:38.408Z,1020.33
2017-11-09T10:32:38.440Z,1020.31
2017-11-09T10:33:38.352Z,1020.34
2017-11-09T10:34:38.455Z,1020.43
2017-11-09T10:35:38.299Z,1020.42
2017-11-09T10:36:38.287Z,1020.38
2017-11-09T10:37:38.244Z,1020.37
2017-11-09T10:38:38.317Z,1020.31
2017-11-09T10:39:38.194Z,1020.28
2017-11-09T10:40:38.294Z,1020.32
2017-11-09T10:41:38.137Z,1020.35
2017-11-09T10:42:38.208Z,1020.29
2017-11-09T10:43:38.083Z,1020.27
2017-11-09T10:44:38.121Z,1020.25
2017-11-09T10:45:38.031Z,1020.26
2017-11-09T10:46:38.126Z,1020.26
2017-11-09T10:47:37.969Z,1020.28
2017-11-09T10:48:38.037Z,1020.29
2017-11-09T10:49:37.917Z,1020.24
2017-11-09T10:50:37.951Z,1020.30
2017-11-09T10:51:37.876Z,1020.26
2017-11-09T10:52:37.965Z,1020.22
2017-11-09T10:53:37.806Z,1020.21
2017-11-09T10:54:37.874Z,1020.20
2017-11-09T10:55:37.757Z,1020.16
2017-11-09T10:56:37.788Z,1020.11
2017-11-09T10:57:37.704Z,1020.12
2017-11-09T10:58:37.802Z,1020.11
2017-11-09T10:59:37.645Z,1020.08
2017-11-09T11:00:37.713Z,1020.04
2017-11-09T11:01:37.598Z,1020.03
2017-11-09T11:02:37.623Z,1020.05
2017-11-09T11:03:37.535Z,1019.97
2017-11-09T11:04:37.638Z,1020.00
2017-11-09T11:05:37.479Z,1019.97
2017-11-09T11:06:37.549Z,1019.99
2017-11-09T11:07:37.431Z,1020.01
2017-11-09T11:08:37.472Z,1020.00
2017-11-09T11:09:37.375Z,1020.03
2017-11-09T11:10:37.475Z,1020.06
2017-11-09T11:11:37.320Z,1020.03
2017-11-09T11:12:37.391Z,1020.00
2017-11-09T11:13:37.268Z,1019.98
2017-11-09T11:14:37.298Z,1019.98
2017-11-09T11:15:37.211Z,1019.93
2017-11-09T11:16:37.313Z,1019.95
2017-11-09T11:17:37.154Z,1019.99
2017-11-09T11:18:37.132Z,1019.99
2017-11-09T11:19:37.232Z,1019.98
2017-11-09T11:20:37.074Z,1020.19
2017-11-09T11:21:37.145Z,1020.32
2017-11-09T11:22:37.026Z,1020.29
2017-11-09T11:23:36.999Z,1020.04
2017-11-09T11:24:36.969Z,1019.95
2017-11-09T11:25:37.074Z,1019.90
2017-11-09T11:26:36.916Z,1019.83
2017-11-09T11:27:38.006Z,1019.82
2017-11-09T11:28:36.868Z,1020.05
2017-11-09T11:29:36.994Z,1020.14
2017-11-09T11:30:36.820Z,1019.91
2017-11-09T11:31:36.905Z,1019.78
2017-11-09T11:32:36.767Z,1020.08
2017-11-09T11:33:36.819Z,1020.34
2017-11-09T11:34:36.710Z,1020.41
2017-11-09T11:35:36.827Z,1020.07
2017-11-09T11:36:36.662Z,1019.97
2017-11-09T11:37:36.744Z,1019.90
2017-11-09T11:38:36.609Z,1019.93
2017-11-09T11:39:36.756Z,1019.85
2017-11-09T11:40:36.563Z,1019.86
2017-11-09T11:41:36.669Z,1019.95
2017-11-09T11:42:36.506Z,1019.99
2017-11-09T11:43:36.578Z,1020.01
2017-11-09T11:44:36.459Z,1019.99
2017-11-09T11:45:36.592Z,1019.97
2017-11-09T11:46:36.411Z,1020.05
2017-11-09T11:47:36.505Z,1020.05
2017-11-09T11:48:36.359Z,1020.05
2017-11-09T11:49:36.417Z,1019.99
2017-11-09T11:50:36.309Z,1019.94
2017-11-09T11:51:36.428Z,1019.93
2017-11-09T11:52:36.266Z,1019.93
2017-11-09T11:53:36.352Z,1019.89
2017-11-09T11:54:36.210Z,1019.90
2017-11-09T11:55:36.355Z,1019.84
2017-11-09T11:56:36.156Z,1019.88
2017-11-09T11:57:36.265Z,1019.81
2017-11-09T11:58:36.109Z,1019.85
2017-11-09T11:59:36.177Z,1019.86
2017-11-09T12:00:36.050Z,1019.83
2017-11-09T12:01:36.190Z,1019.79
2017-11-09T12:02:35.998Z,1019.81
2017-11-09T12:03:36.026Z,1019.84
2017-11-09T12:04:35.947Z,1019.84
2017-11-09T12:05:36.012Z,1019.84